Time;durP1;ratioP1;P1;durP2;ratioP2;P2;SDS_P1;SDS_P2;PMS_P1;PMS_P2;Temp;Humidity;BMP_temperature;BMP_pressure;BME280_temperature;BME280_humidity;BME280_pressure;Samples;Min_cycle;Max_cycle;Signal;HPM_P1;HPM_P2
2022/04/19 00:00:27;;;;;;;4.20;2.93;;;6.10;99.90;;;;;;5038969;28;20590;-46
2022/04/19 00:02:53;;;;;;;3.77;3.07;;;6.10;99.90;;;;;;5037167;28;20182;-46
2022/04/19 00:05:18;;;;;;;4.90;3.50;;;6.00;99.90;;;;;;5046116;28;20222;-46
2022/04/19 00:07:44;;;;;;;5.30;3.57;;;6.00;99.90;;;;;;5036471;28;20206;-47
2022/04/19 00:10:10;;;;;;;5.53;3.20;;;6.00;99.90;;;;;;5047539;28;20244;-47
2022/04/19 00:12:36;;;;;;;3.67;3.27;;;5.90;99.90;;;;;;5048125;28;20436;-47
2022/04/19 00:15:03;;;;;;;8.47;4.33;;;5.90;99.90;;;;;;5036952;28;20478;-47
2022/04/19 00:17:29;;;;;;;9.83;4.20;;;5.80;99.90;;;;;;5044442;28;20602;-47
2022/04/19 00:19:55;;;;;;;5.13;4.10;;;5.80;99.90;;;;;;5045365;28;20429;-47
2022/04/19 00:22:20;;;;;;;4.97;3.70;;;5.80;99.90;;;;;;5046314;28;20221;-47
2022/04/19 00:24:46;;;;;;;6.90;4.37;;;5.80;99.90;;;;;;5041620;28;20211;-47
2022/04/19 00:27:12;;;;;;;7.17;4.70;;;5.80;99.90;;;;;;5032952;28;20636;-47
2022/04/19 00:29:41;;;;;;;6.47;4.73;;;5.70;99.90;;;;;;5035796;28;20436;-47
2022/04/19 00:32:11;;;;;;;6.63;4.67;;;5.60;99.90;;;;;;5042738;28;20194;-47
2022/04/19 00:34:38;;;;;;;7.73;4.67;;;5.60;99.90;;;;;;5033301;28;20456;-47
2022/04/19 00:37:05;;;;;;;7.33;4.03;;;5.50;99.90;;;;;;5049410;28;20433;-47
2022/04/19 00:39:30;;;;;;;9.30;5.30;;;5.50;99.90;;;;;;5042596;28;20928;-47
2022/04/19 00:41:56;;;;;;;12.70;4.77;;;5.50;99.90;;;;;;5041050;28;20444;-47
2022/04/19 00:44:23;;;;;;;6.47;4.97;;;5.40;99.90;;;;;;5035933;28;20222;-47
2022/04/19 00:46:51;;;;;;;7.00;4.33;;;5.40;99.90;;;;;;5027078;28;20437;-47
2022/04/19 00:49:17;;;;;;;10.80;4.80;;;5.40;99.90;;;;;;5042521;28;20477;-47
2022/04/19 00:51:46;;;;;;;6.33;4.60;;;5.40;99.90;;;;;;5041616;28;20452;-47
2022/04/19 00:54:13;;;;;;;7.47;4.90;;;5.30;99.90;;;;;;5044179;28;20441;-47
2022/04/19 00:56:40;;;;;;;7.10;5.10;;;5.30;99.90;;;;;;5031651;28;20452;-47
2022/04/19 00:59:06;;;;;;;7.50;5.00;;;5.30;99.90;;;;;;5037092;28;20504;-47
2022/04/19 01:01:33;;;;;;;7.53;5.20;;;5.30;99.90;;;;;;5035833;28;20431;-47
2022/04/19 01:03:59;;;;;;;6.53;4.90;;;5.30;99.90;;;;;;5031455;28;20846;-48
2022/04/19 01:06:24;;;;;;;8.77;4.97;;;5.30;99.90;;;;;;5035362;28;20441;-47
2022/04/19 01:08:50;;;;;;;9.90;5.30;;;5.30;99.90;;;;;;5032517;28;20190;-47
2022/04/19 01:14:02;;;;;;;7.60;4.73;;;5.30;99.90;;;;;;5027650;28;20456;-51
2022/04/19 01:16:28;;;;;;;6.83;4.87;;;5.30;99.90;;;;;;5030250;28;20448;-47
2022/04/19 01:18:55;;;;;;;7.70;4.87;;;5.20;99.90;;;;;;5031286;28;20433;-47
2022/04/19 01:21:21;;;;;;;11.93;6.03;;;5.20;99.90;;;;;;5031234;28;20449;-47
2022/04/19 01:23:46;;;;;;;11.40;5.20;;;5.10;99.90;;;;;;5031186;28;20658;-49
2022/04/19 01:26:12;;;;;;;6.50;4.13;;;5.00;99.90;;;;;;5029893;28;20191;-47
2022/04/19 01:28:37;;;;;;;11.50;6.00;;;5.00;99.90;;;;;;5029870;28;20191;-47
2022/04/19 01:31:04;;;;;;;9.77;5.33;;;4.90;99.90;;;;;;5031219;28;20194;-47
2022/04/19 01:33:30;;;;;;;9.50;5.60;;;4.90;99.90;;;;;;5031127;28;20531;-47
2022/04/19 01:35:56;;;;;;;11.10;5.63;;;4.80;99.90;;;;;;5031027;28;20444;-47
2022/04/19 01:38:21;;;;;;;11.27;5.90;;;4.80;99.90;;;;;;5012820;28;20198;-47
2022/04/19 01:40:47;;;;;;;8.40;5.70;;;4.80;99.90;;;;;;5030567;28;20205;-48
2022/04/19 01:43:12;;;;;;;9.03;5.90;;;4.80;99.90;;;;;;5031219;28;20206;-47
2022/04/19 01:45:38;;;;;;;8.17;6.23;;;4.70;99.90;;;;;;5031138;28;20203;-47
2022/04/19 01:48:04;;;;;;;8.90;6.17;;;4.70;99.90;;;;;;5030620;28;20194;-47
2022/04/19 01:50:30;;;;;;;9.83;6.07;;;4.70;99.90;;;;;;5030253;28;20246;-47
2022/04/19 01:52:57;;;;;;;9.40;5.97;;;4.70;99.90;;;;;;5030771;28;20186;-48
2022/04/19 01:55:24;;;;;;;36.53;18.73;;;4.60;99.90;;;;;;5030360;28;20350;-47
2022/04/19 01:57:56;;;;;;;26.80;14.60;;;4.60;99.90;;;;;;5030460;28;20433;-47
2022/04/19 02:00:22;;;;;;;18.40;10.20;;;4.60;99.90;;;;;;5028110;28;20473;-47
2022/04/19 02:02:48;;;;;;;12.60;7.83;;;4.60;99.90;;;;;;5034890;28;20430;-47
2022/04/19 02:05:15;;;;;;;12.00;7.63;;;4.50;99.90;;;;;;5030775;28;20199;-47
2022/04/19 02:07:43;;;;;;;11.17;6.80;;;4.50;99.90;;;;;;5030319;28;20514;-47
2022/04/19 02:10:10;;;;;;;9.83;6.40;;;4.40;99.90;;;;;;5030674;28;20488;-47
2022/04/19 02:12:36;;;;;;;12.43;6.30;;;4.40;99.90;;;;;;5024436;28;20426;-47
2022/04/19 02:15:03;;;;;;;13.30;6.60;;;4.40;99.90;;;;;;5030699;28;20521;-47
2022/04/19 02:17:29;;;;;;;9.20;6.30;;;4.40;99.90;;;;;;5030565;28;20464;-48
2022/04/19 02:20:05;;;;;;;9.43;6.40;;;4.40;99.90;;;;;;5029978;28;20417;-47
2022/04/19 02:22:32;;;;;;;8.63;6.00;;;4.30;99.90;;;;;;5018282;28;20545;-47
2022/04/19 02:24:59;;;;;;;11.70;7.23;;;4.30;99.90;;;;;;5030116;28;20482;-47
2022/04/19 02:27:27;;;;;;;10.10;6.40;;;4.30;1.00;;;;;;5030293;28;20466;-47
2022/04/19 02:29:55;;;;;;;9.33;6.40;;;4.20;1.00;;;;;;5025234;28;20779;-48
2022/04/19 02:32:23;;;;;;;11.00;6.20;;;4.10;99.90;;;;;;5027059;28;20440;-47
2022/04/19 02:34:52;;;;;;;12.93;6.87;;;4.10;1.00;;;;;;5029964;28;20974;-47
2022/04/19 02:37:18;;;;;;;9.53;6.53;;;4.00;1.00;;;;;;5030205;28;20430;-47
2022/04/19 02:39:48;;;;;;;12.53;6.90;;;4.00;1.00;;;;;;5030149;28;20443;-47
2022/04/19 02:42:13;;;;;;;13.67;7.67;;;4.00;1.00;;;;;;5030076;28;20434;-47
2022/04/19 02:44:39;;;;;;;12.30;7.30;;;4.00;1.00;;;;;;5030455;28;21100;-48
2022/04/19 02:47:05;;;;;;;13.40;7.33;;;4.00;1.00;;;;;;5030288;28;20184;-47
2022/04/19 02:49:33;;;;;;;11.70;7.70;;;4.00;1.00;;;;;;5029667;28;20881;-53
2022/04/19 02:51:59;;;;;;;13.93;8.03;;;3.90;1.00;;;;;;5011709;28;20469;-48
2022/04/19 02:54:24;;;;;;;13.57;8.60;;;4.00;1.00;;;;;;5029538;28;20437;-47
2022/04/19 02:56:50;;;;;;;12.73;7.80;;;3.90;1.00;;;;;;5012196;28;20282;-48
2022/04/19 02:59:15;;;;;;;13.07;7.43;;;3.90;1.00;;;;;;5029898;28;20225;-48
2022/04/19 03:01:42;;;;;;;11.50;7.20;;;3.90;1.00;;;;;;5029508;28;20245;-47
2022/04/19 03:04:07;;;;;;;13.80;7.80;;;3.90;1.00;;;;;;5029920;28;20254;-47
2022/04/19 03:06:33;;;;;;;14.67;8.93;;;3.90;1.00;;;;;;5026047;28;20484;-48
2022/04/19 03:08:59;;;;;;;16.77;8.50;;;3.90;1.00;;;;;;5012181;28;20191;-47
2022/04/19 03:11:24;;;;;;;11.97;7.33;;;3.90;1.00;;;;;;5029925;28;20258;-48
2022/04/19 03:13:50;;;;;;;14.03;8.73;;;3.90;1.00;;;;;;5029601;28;20195;-48
2022/04/19 03:16:15;;;;;;;17.93;9.20;;;3.80;1.00;;;;;;5029266;28;20181;-48
2022/04/19 03:18:42;;;;;;;14.97;9.03;;;3.80;1.00;;;;;;5029716;28;20179;-47
2022/04/19 03:21:11;;;;;;;15.10;8.40;;;3.70;1.00;;;;;;5030077;28;20199;-48
2022/04/19 03:29:11;;;;;;;15.43;8.70;;;3.70;1.00;;;;;;5030602;28;20445;-47
2022/04/19 03:31:36;;;;;;;11.07;7.70;;;3.60;1.00;;;;;;5032563;28;20800;-48
2022/04/19 03:34:03;;;;;;;13.87;8.63;;;3.60;1.00;;;;;;5033344;28;20425;-48
2022/04/19 03:36:29;;;;;;;17.83;9.00;;;3.60;1.00;;;;;;5033666;28;20191;-47
2022/04/19 03:38:55;;;;;;;16.83;9.20;;;3.60;1.00;;;;;;5015630;28;20429;-48
2022/04/19 03:41:21;;;;;;;15.53;9.37;;;3.60;1.00;;;;;;5034040;28;20472;-47
2022/04/19 03:43:46;;;;;;;14.63;7.97;;;3.60;1.00;;;;;;5033306;28;20238;-48
2022/04/19 03:46:12;;;;;;;13.77;8.87;;;3.60;1.00;;;;;;5033527;28;20270;-47
2022/04/19 03:48:37;;;;;;;16.83;9.57;;;3.60;1.00;;;;;;5033160;28;20234;-47
2022/04/19 03:51:04;;;;;;;17.27;9.00;;;3.60;1.00;;;;;;5033358;28;20229;-48
2022/04/19 03:53:30;;;;;;;18.83;9.13;;;3.50;1.00;;;;;;5015833;28;20179;-50
2022/04/19 03:55:56;;;;;;;13.00;8.10;;;3.50;1.00;;;;;;5032693;28;20802;-48
2022/04/19 03:58:21;;;;;;;15.17;8.50;;;3.50;1.00;;;;;;5033294;28;20430;-48
2022/04/19 04:00:47;;;;;;;15.03;9.57;;;3.50;1.00;;;;;;5032840;28;20644;-48
2022/04/19 04:03:12;;;;;;;14.13;8.90;;;3.50;1.00;;;;;;5032769;28;20680;-48
2022/04/19 04:05:38;;;;;;;23.20;9.00;;;3.50;1.00;;;;;;5033059;28;20672;-48
2022/04/19 04:08:04;;;;;;;13.80;8.60;;;3.50;4.90;;;;;;5033031;28;20881;-48
2022/04/19 04:10:30;;;;;;;13.13;9.17;;;3.50;3.40;;;;;;5032955;28;20934;-48
2022/04/19 04:12:57;;;;;;;18.03;9.40;;;3.50;14.90;;;;;;5014607;28;20234;-48
2022/04/19 04:15:24;;;;;;;14.60;8.37;;;3.40;2.60;;;;;;5033118;28;20182;-48
2022/04/19 04:17:49;;;;;;;16.37;9.17;;;3.40;1.00;;;;;;5032250;28;20963;-48
2022/04/19 04:20:15;;;;;;;13.53;8.40;;;3.40;1.00;;;;;;5032970;28;20497;-48
2022/04/19 04:22:40;;;;;;;14.63;8.50;;;3.30;5.40;;;;;;5032683;28;20197;-48
2022/04/19 04:25:06;;;;;;;15.30;9.13;;;3.30;52.30;;;;;;5032174;28;20218;-48
2022/04/19 04:27:32;;;;;;;15.83;8.97;;;3.30;17.10;;;;;;5032374;28;20220;-48
2022/04/19 04:29:57;;;;;;;16.53;9.33;;;3.30;53.20;;;;;;5032924;28;20405;-48
2022/04/19 04:32:23;;;;;;;12.70;8.73;;;3.30;99.90;;;;;;5032640;28;20186;-47
2022/04/19 04:34:48;;;;;;;19.30;9.30;;;3.30;99.90;;;;;;5032188;28;20180;-48
2022/04/19 04:37:14;;;;;;;17.70;10.17;;;3.30;86.50;;;;;;5032606;28;20214;-48
2022/04/19 04:39:39;;;;;;;17.03;9.40;;;3.30;49.80;;;;;;5013981;28;20268;-48
2022/04/19 04:42:05;;;;;;;15.17;9.00;;;3.40;94.50;;;;;;5032515;28;20205;-48
2022/04/19 04:44:31;;;;;;;15.57;8.57;;;3.40;68.70;;;;;;5034046;28;20303;-48
2022/04/19 04:49:40;;;;;;;14.70;9.40;;;3.50;96.80;;;;;;5048837;28;20230;-48
2022/04/19 04:52:12;;;;;;;17.23;9.60;;;3.50;99.60;;;;;;5032531;28;20426;-48
2022/04/19 04:54:39;;;;;;;18.80;10.17;;;3.60;53.90;;;;;;5031725;28;20645;-48
2022/04/19 04:57:05;;;;;;;20.93;10.47;;;3.60;62.60;;;;;;5026265;28;20442;-53
2022/04/19 04:59:32;;;;;;;17.33;10.20;;;3.70;67.40;;;;;;5031776;28;20430;-48
2022/04/19 05:01:58;;;;;;;20.10;10.93;;;3.70;75.70;;;;;;5031612;28;20444;-48
2022/04/19 05:04:23;;;;;;;22.23;10.53;;;3.80;58.20;;;;;;5031473;28;20465;-47
2022/04/19 05:06:49;;;;;;;17.53;10.83;;;3.90;22.70;;;;;;5031745;28;20171;-48
2022/04/19 05:09:15;;;;;;;14.77;10.10;;;3.90;17.20;;;;;;5031335;28;20270;-48
2022/04/19 05:11:40;;;;;;;17.80;10.03;;;4.00;1.00;;;;;;5031748;28;20205;-48
2022/04/19 05:14:09;;;;;;;18.97;11.00;;;4.10;1.00;;;;;;5031151;28;20810;-48
2022/04/19 05:16:35;;;;;;;20.67;11.10;;;4.20;1.00;;;;;;5031706;28;20163;-47
2022/04/19 05:19:04;;;;;;;17.77;10.10;;;4.30;1.00;;;;;;5030611;28;20430;-48
2022/04/19 05:21:30;;;;;;;17.10;9.63;;;4.30;1.00;;;;;;5014219;28;20547;-48
2022/04/19 05:23:55;;;;;;;22.67;11.97;;;4.40;1.00;;;;;;5013642;28;20469;-49
2022/04/19 05:26:23;;;;;;;23.00;12.60;;;4.50;1.00;;;;;;5029862;28;20203;-48
2022/04/19 05:28:49;;;;;;;19.57;12.00;;;4.60;1.00;;;;;;5013112;28;20195;-48
2022/04/19 05:31:14;;;;;;;18.13;10.73;;;4.70;1.00;;;;;;5030193;28;20518;-48
2022/04/19 05:33:40;;;;;;;23.17;12.03;;;4.80;1.00;;;;;;5029054;28;20195;-51
2022/04/19 05:36:05;;;;;;;18.83;11.20;;;4.90;1.00;;;;;;5030894;28;20197;-51
2022/04/19 05:38:31;;;;;;;17.00;10.93;;;5.00;1.00;;;;;;5030753;28;20668;-50
2022/04/19 05:40:58;;;;;;;17.03;9.77;;;5.20;1.00;;;;;;5030840;28;20202;-51
2022/04/19 05:43:24;;;;;;;16.07;10.50;;;5.40;1.00;;;;;;5029967;28;20199;-51
2022/04/19 05:45:50;;;;;;;17.27;10.77;;;5.50;1.00;;;;;;5030910;28;20847;-51
2022/04/19 05:48:15;;;;;;;15.10;9.90;;;5.70;1.00;;;;;;5030304;28;20187;-50
2022/04/19 05:50:41;;;;;;;15.00;9.90;;;5.90;1.00;;;;;;5025357;28;20179;-51
2022/04/19 05:53:06;;;;;;;15.53;9.70;;;6.10;1.00;;;;;;5029828;28;20187;-51
2022/04/19 05:55:32;;;;;;;18.97;9.67;;;6.40;1.00;;;;;;5030649;28;20214;-51
2022/04/19 05:57:58;;;;;;;14.17;7.90;;;6.70;1.00;;;;;;5029906;28;20556;-50
2022/04/19 06:00:24;;;;;;;11.90;7.57;;;7.00;1.00;;;;;;5029008;28;20438;-50
2022/04/19 06:05:34;;;;;;;13.50;7.63;;;7.60;99.90;;;;;;5029187;28;20221;-48
2022/04/19 06:08:00;;;;;;;10.80;6.93;;;8.00;99.90;;;;;;5027305;28;20450;-48
2022/04/19 06:10:25;;;;;;;9.67;6.37;;;8.20;99.90;;;;;;5030904;28;20183;-47
2022/04/19 06:12:51;;;;;;;11.90;6.43;;;8.50;99.90;;;;;;5030612;28;20191;-47
2022/04/19 06:15:17;;;;;;;10.70;6.47;;;8.70;99.90;;;;;;5030521;28;20191;-48
2022/04/19 06:17:42;;;;;;;11.43;6.93;;;9.00;99.90;;;;;;5029967;28;20179;-47
2022/04/19 06:20:09;;;;;;;11.17;6.40;;;9.20;99.90;;;;;;5030363;28;20190;-47
2022/04/19 06:22:35;;;;;;;9.47;6.30;;;9.40;99.90;;;;;;5030805;28;20183;-47
2022/04/19 06:25:01;;;;;;;12.47;6.03;;;9.60;99.90;;;;;;5030555;28;20457;-47
2022/04/19 06:27:27;;;;;;;9.10;5.80;;;9.80;99.90;;;;;;5027649;28;20187;-47
2022/04/19 06:29:53;;;;;;;9.80;5.57;;;10.00;99.90;;;;;;5029344;28;20845;-47
2022/04/19 06:32:19;;;;;;;9.70;5.67;;;10.30;99.90;;;;;;5030127;28;20187;-47
2022/04/19 06:34:45;;;;;;;8.60;6.13;;;10.50;99.90;;;;;;5030638;28;20417;-47
2022/04/19 06:37:11;;;;;;;9.50;4.97;;;10.70;99.90;;;;;;5030436;28;20846;-47
2022/04/19 06:39:37;;;;;;;7.57;4.90;;;10.80;99.90;;;;;;5030421;28;20241;-47
2022/04/19 06:42:02;;;;;;;7.53;5.30;;;10.70;99.90;;;;;;5030054;28;20190;-47
2022/04/19 06:44:28;;;;;;;7.77;5.17;;;10.70;99.90;;;;;;5030213;28;20531;-47
2022/04/19 06:46:53;;;;;;;11.00;5.00;;;10.80;99.90;;;;;;5025177;28;20194;-47
2022/04/19 06:49:19;;;;;;;7.83;5.10;;;10.90;99.90;;;;;;5029322;28;20606;-47
2022/04/19 06:51:45;;;;;;;9.73;4.90;;;11.00;99.90;;;;;;5026456;28;20214;-47
2022/04/19 06:54:12;;;;;;;11.53;5.67;;;11.10;99.90;;;;;;5029734;28;20214;-47
2022/04/19 06:56:38;;;;;;;8.93;4.90;;;11.20;99.90;;;;;;5028959;28;20777;-47
2022/04/19 06:59:03;;;;;;;7.67;5.30;;;11.30;99.90;;;;;;5029679;28;20423;-47
2022/04/19 07:01:29;;;;;;;10.27;5.50;;;11.30;99.90;;;;;;5029427;28;20425;-47
2022/04/19 07:03:55;;;;;;;6.53;5.13;;;11.10;99.90;;;;;;5029461;28;20225;-47
2022/04/19 07:06:20;;;;;;;9.50;5.57;;;11.20;99.90;;;;;;5029940;28;20603;-47
2022/04/19 07:08:46;;;;;;;9.60;6.00;;;11.40;99.90;;;;;;5030044;28;20521;-47
2022/04/19 07:11:16;;;;;;;6.73;4.93;;;11.60;99.90;;;;;;5030070;28;20258;-47
2022/04/19 07:13:42;;;;;;;7.67;4.90;;;11.80;99.90;;;;;;5029919;28;20218;-47
2022/04/19 07:16:08;;;;;;;6.30;5.03;;;12.10;99.90;;;;;;5027420;28;20452;-47
2022/04/19 07:18:34;;;;;;;10.63;4.17;;;12.30;99.90;;;;;;5027571;28;20449;-47
2022/04/19 07:26:47;;;;;;;10.87;4.57;;;12.70;99.90;;;;;;5030126;28;20465;-47
2022/04/19 07:29:15;;;;;;;7.17;4.93;;;13.00;99.90;;;;;;5030541;28;20405;-47
2022/04/19 07:31:42;;;;;;;7.37;4.50;;;13.50;99.90;;;;;;5030132;28;20864;-47
2022/04/19 07:34:09;;;;;;;5.80;4.60;;;13.50;99.90;;;;;;5029948;28;20915;-47
2022/04/19 07:36:39;;;;;;;9.20;4.97;;;13.60;99.90;;;;;;5029138;28;20441;-48
2022/04/19 07:39:14;;;;;;;7.63;4.90;;;13.60;99.90;;;;;;5029962;28;20559;-47
2022/04/19 07:41:41;;;;;;;5.93;4.17;;;13.70;99.90;;;;;;5029845;28;20448;-47
2022/04/19 07:44:08;;;;;;;7.67;4.93;;;13.60;99.90;;;;;;5028734;28;20959;-47
2022/04/19 07:46:35;;;;;;;9.30;4.50;;;13.70;99.90;;;;;;5028935;28;20544;-47
2022/04/19 07:49:02;;;;;;;8.57;4.47;;;13.90;99.90;;;;;;5028659;28;20469;-48
2022/04/19 07:51:28;;;;;;;7.50;4.63;;;14.20;99.90;;;;;;5029084;28;20406;-49
2022/04/19 07:53:53;;;;;;;5.33;4.13;;;14.10;99.90;;;;;;5042299;28;20452;-50
2022/04/19 07:56:19;;;;;;;5.00;4.17;;;14.00;99.90;;;;;;5049379;28;20177;-49
2022/04/19 07:58:47;;;;;;;5.00;3.80;;;14.10;99.90;;;;;;5032957;28;20201;-50
2022/04/19 08:01:13;;;;;;;3.97;3.63;;;14.40;99.90;;;;;;5029594;28;20252;-48
2022/04/19 08:03:38;;;;;;;10.00;4.97;;;14.90;99.90;;;;;;5029330;28;20812;-49
2022/04/19 08:06:04;;;;;;;8.40;4.87;;;15.40;99.90;;;;;;5029628;28;20406;-49
2022/04/19 08:08:30;;;;;;;7.83;4.70;;;15.70;99.90;;;;;;5028302;28;20552;-49
2022/04/19 08:10:55;;;;;;;6.10;4.47;;;15.90;99.90;;;;;;5049858;28;20178;-48
2022/04/19 08:13:21;;;;;;;5.70;4.83;;;16.10;99.90;;;;;;5049571;28;20236;-49
2022/04/19 08:15:46;;;;;;;12.00;4.83;;;16.20;99.90;;;;;;5035912;28;20660;-49
2022/04/19 08:18:14;;;;;;;4.30;3.90;;;16.60;99.90;;;;;;5032892;28;20273;-49
2022/04/19 08:20:43;;;;;;;6.07;5.00;;;16.80;99.90;;;;;;5033125;28;20262;-50
2022/04/19 08:23:12;;;;;;;8.50;4.13;;;17.10;99.90;;;;;;5033076;28;20493;-48
2022/04/19 08:25:39;;;;;;;5.47;3.83;;;17.30;99.90;;;;;;5033024;28;20574;-48
2022/04/19 08:28:06;;;;;;;3.80;3.27;;;17.50;99.90;;;;;;5033405;28;21190;-48
2022/04/19 08:30:32;;;;;;;7.20;3.40;;;17.80;99.90;;;;;;5031864;28;20452;-47
2022/04/19 08:32:58;;;;;;;6.30;3.60;;;17.80;99.90;;;;;;5032991;28;20394;-47
2022/04/19 08:35:24;;;;;;;6.60;3.80;;;17.80;99.90;;;;;;5031238;28;20506;-48
2022/04/19 08:37:49;;;;;;;4.90;3.50;;;17.90;99.90;;;;;;5031932;28;20240;-47
2022/04/19 08:40:16;;;;;;;5.00;3.70;;;17.90;99.90;;;;;;5032619;28;20186;-47
2022/04/19 08:42:43;;;;;;;6.70;3.60;;;18.00;99.90;;;;;;5031642;28;20199;-47
2022/04/19 08:45:14;;;;;;;8.57;3.47;;;18.20;99.90;;;;;;5030275;28;20477;-47
2022/04/19 08:47:46;;;;;;;9.00;3.73;;;18.60;99.90;;;;;;5032494;28;20620;-48
2022/04/19 08:50:17;;;;;;;4.17;3.50;;;18.90;99.90;;;;;;5032686;28;21023;-48
2022/04/19 08:52:43;;;;;;;3.30;3.00;;;19.20;99.90;;;;;;5031538;28;20441;-48
2022/04/19 08:57:54;;;;;;;4.63;3.20;;;19.20;99.90;;;;;;5033327;28;20511;-48
2022/04/19 09:00:22;;;;;;;4.40;3.00;;;19.20;99.90;;;;;;5033700;28;20413;-47
2022/04/19 09:02:49;;;;;;;4.80;3.90;;;19.40;99.90;;;;;;5018720;28;20442;-48
2022/04/19 09:05:21;;;;;;;5.97;3.80;;;19.50;99.90;;;;;;5012896;28;20474;-47
2022/04/19 09:07:49;;;;;;;7.07;4.07;;;19.60;99.90;;;;;;5022511;28;20943;-47
2022/04/19 09:10:24;;;;;;;5.63;3.90;;;19.50;99.90;;;;;;5032416;28;21176;-47
2022/04/19 09:13:10;;;;;;;4.83;3.27;;;19.40;99.90;;;;;;5032964;28;20492;-47
2022/04/19 09:15:39;;;;;;;6.37;3.57;;;19.60;99.90;;;;;;5032855;28;20406;-47
2022/04/19 09:18:13;;;;;;;7.50;4.10;;;19.50;99.90;;;;;;5033257;28;20417;-47
2022/04/19 09:20:39;;;;;;;6.17;4.67;;;19.50;99.90;;;;;;5033055;28;20393;-48
2022/04/19 09:23:07;;;;;;;5.23;4.00;;;19.50;99.90;;;;;;5014085;28;20521;-47
2022/04/19 09:25:33;;;;;;;11.53;4.60;;;19.40;99.90;;;;;;5032728;28;20217;-47
2022/04/19 09:28:00;;;;;;;8.93;4.13;;;19.10;99.90;;;;;;5031467;28;20481;-47
2022/04/19 09:30:34;;;;;;;9.03;4.40;;;18.90;99.90;;;;;;5032690;28;20449;-47
2022/04/19 09:33:06;;;;;;;5.30;3.80;;;18.90;99.90;;;;;;5032826;28;20497;-47
2022/04/19 09:35:45;;;;;;;12.20;4.70;;;19.10;99.90;;;;;;5032898;28;20435;-47
2022/04/19 09:38:12;;;;;;;7.73;4.90;;;19.20;99.90;;;;;;5031421;28;20432;-47
2022/04/19 09:40:48;;;;;;;10.60;5.03;;;18.90;99.90;;;;;;5032484;28;20402;-47
2022/04/19 09:43:17;;;;;;;6.90;4.63;;;18.60;99.90;;;;;;5032595;28;20519;-47
2022/04/19 09:45:54;;;;;;;8.63;5.50;;;18.50;99.90;;;;;;5031954;28;20485;-47
2022/04/19 09:48:22;;;;;;;15.80;5.10;;;18.60;99.90;;;;;;5032123;28;20897;-47
2022/04/19 09:50:52;;;;;;;17.93;6.43;;;18.60;99.90;;;;;;5032145;28;20406;-47
2022/04/19 09:53:24;;;;;;;14.23;6.63;;;18.40;99.90;;;;;;5031226;28;20541;-47
2022/04/19 09:55:51;;;;;;;11.57;5.70;;;18.20;99.90;;;;;;5031436;28;20463;-47
2022/04/19 09:58:18;;;;;;;8.50;5.17;;;18.10;99.90;;;;;;5046297;28;20428;-47
2022/04/19 10:00:45;;;;;;;10.33;5.40;;;18.20;99.90;;;;;;5052047;28;20760;-47
2022/04/19 10:08:56;;;;;;;9.63;5.03;;;18.60;99.90;;;;;;4980132;28;20471;-48
2022/04/19 10:11:24;;;;;;;7.60;4.77;;;18.60;99.90;;;;;;5050996;28;20405;-48
2022/04/19 10:13:52;;;;;;;6.47;4.53;;;18.60;99.90;;;;;;5052260;28;20408;-48
2022/04/19 10:16:17;;;;;;;6.47;4.50;;;18.80;99.90;;;;;;5051630;28;20883;-47
2022/04/19 10:18:46;;;;;;;8.70;4.77;;;18.80;99.90;;;;;;5051209;28;20463;-47
2022/04/19 10:21:19;;;;;;;5.90;4.07;;;19.20;99.90;;;;;;5051607;28;20616;-47
2022/04/19 10:23:45;;;;;;;4.13;3.17;;;19.30;99.90;;;;;;5051123;28;20547;-52
2022/04/19 10:26:24;;;;;;;5.50;3.70;;;19.70;99.90;;;;;;5051143;28;20819;-48
2022/04/19 10:28:55;;;;;;;7.93;4.37;;;20.30;99.90;;;;;;5052357;28;20162;-47
2022/04/19 10:31:26;;;;;;;13.93;4.53;;;20.20;99.90;;;;;;5051931;28;20894;-47
2022/04/19 10:33:52;;;;;;;6.30;3.87;;;20.30;99.90;;;;;;5051392;28;20409;-48
2022/04/19 10:36:39;;;;;;;5.00;3.47;;;20.50;99.90;;;;;;5051283;28;20408;-48
2022/04/19 10:39:16;;;;;;;5.10;3.53;;;20.90;99.90;;;;;;5050670;28;20485;-47
2022/04/19 10:42:05;;;;;;;5.60;3.40;;;21.30;99.90;;;;;;5050644;28;20404;-47
2022/04/19 10:44:43;;;;;;;7.67;3.30;;;21.40;99.90;;;;;;5050625;28;20957;-48
2022/04/19 10:47:16;;;;;;;4.57;3.30;;;21.70;99.90;;;;;;5050977;28;20474;-48
2022/04/19 10:49:54;;;;;;;4.70;3.33;;;21.70;99.90;;;;;;5050620;28;20547;-48
2022/04/19 10:52:42;;;;;;;6.07;3.23;;;22.00;99.90;;;;;;5050599;28;20413;-48
2022/04/19 10:55:17;;;;;;;6.33;3.30;;;22.00;99.90;;;;;;5050871;28;20389;-47
2022/04/19 10:58:17;;;;;;;5.13;2.97;;;22.30;99.90;;;;;;5050426;28;20553;-48
2022/04/19 11:00:53;;;;;;;3.17;2.40;;;22.40;99.90;;;;;;5050619;28;20500;-48
2022/04/19 11:03:29;;;;;;;2.83;2.50;;;22.70;99.90;;;;;;5050940;28;20400;-48
2022/04/19 11:05:56;;;;;;;5.77;2.87;;;22.70;99.90;;;;;;5042471;28;20461;-48
2022/04/19 11:08:25;;;;;;;4.70;2.30;;;22.60;99.90;;;;;;5029133;28;20445;-48
2022/04/19 11:11:04;;;;;;;2.43;2.20;;;22.60;99.90;;;;;;5012474;28;20437;-48
2022/04/19 11:13:37;;;;;;;3.53;2.37;;;22.80;99.90;;;;;;5029964;28;20452;-48
2022/04/19 11:16:05;;;;;;;3.50;2.60;;;22.90;99.90;;;;;;5030265;28;20422;-48
2022/04/19 11:18:32;;;;;;;3.50;2.60;;;23.00;99.90;;;;;;5029809;28;20453;-48
2022/04/19 11:21:07;;;;;;;3.03;2.60;;;22.60;99.90;;;;;;5025916;28;20455;-49
2022/04/19 11:23:47;;;;;;;5.73;2.10;;;22.50;99.90;;;;;;5030618;28;20460;-48
2022/04/19 11:26:30;;;;;;;3.30;2.70;;;22.80;99.90;;;;;;5015548;28;20731;-51
2022/04/19 11:29:08;;;;;;;6.03;2.10;;;22.70;99.90;;;;;;5031145;28;20394;-48
2022/04/19 11:31:34;;;;;;;3.53;1.70;;;22.80;99.90;;;;;;5026504;28;20858;-48
2022/04/19 11:34:00;;;;;;;4.80;2.30;;;23.10;99.90;;;;;;5030253;28;20840;-48
2022/04/19 11:36:26;;;;;;;3.47;2.63;;;23.40;99.90;;;;;;5030082;28;20488;-48
2022/04/19 11:38:52;;;;;;;3.10;2.43;;;22.90;99.90;;;;;;5030265;28;20187;-48
2022/04/19 11:46:44;;;;;;;7.03;2.43;;;23.20;99.90;;;;;;5028642;28;20855;-48
2022/04/19 11:49:11;;;;;;;3.10;2.27;;;23.50;99.90;;;;;;5028444;28;20971;-48
2022/04/19 11:51:37;;;;;;;3.97;2.43;;;23.50;99.90;;;;;;5030451;28;20909;-49
2022/04/19 11:54:04;;;;;;;3.27;2.10;;;22.90;99.90;;;;;;5033651;28;20488;-49
2022/04/19 11:56:33;;;;;;;4.07;2.20;;;23.20;99.90;;;;;;5017563;28;20512;-48
2022/04/19 11:59:00;;;;;;;3.87;2.20;;;23.50;99.90;;;;;;5034052;28;20452;-49
2022/04/19 12:01:29;;;;;;;4.70;2.30;;;23.70;99.90;;;;;;5035002;28;20421;-49
2022/04/19 12:03:56;;;;;;;8.00;1.80;;;24.00;99.90;;;;;;5034856;28;20421;-48
2022/04/19 12:06:22;;;;;;;2.10;1.63;;;24.00;99.90;;;;;;5033495;28;20513;-48
2022/04/19 12:08:53;;;;;;;5.50;1.57;;;23.70;99.90;;;;;;5035614;28;20410;-48
2022/04/19 12:11:19;;;;;;;1.40;1.30;;;23.60;99.90;;;;;;5036276;28;20433;-48
2022/04/19 12:13:48;;;;;;;2.60;1.70;;;23.40;99.90;;;;;;5033750;28;20483;-49
2022/04/19 12:16:30;;;;;;;1.70;1.60;;;23.50;99.90;;;;;;5033295;28;20425;-48
2022/04/19 12:19:00;;;;;;;3.03;1.70;;;23.80;99.90;;;;;;5033764;28;20435;-48
2022/04/19 12:21:39;;;;;;;1.87;1.53;;;23.90;99.90;;;;;;5034871;28;20424;-48
2022/04/19 12:24:07;;;;;;;10.30;1.70;;;24.00;99.90;;;;;;5039491;28;20472;-48
2022/04/19 12:26:33;;;;;;;4.40;1.40;;;23.90;99.90;;;;;;5032393;28;20529;-49
2022/04/19 12:29:13;;;;;;;1.73;1.30;;;23.70;99.90;;;;;;5034372;28;20987;-50
2022/04/19 12:31:40;;;;;;;2.40;1.17;;;23.60;99.90;;;;;;5026997;28;20440;-50
2022/04/19 12:34:07;;;;;;;1.43;1.33;;;23.80;99.90;;;;;;5033703;28;20443;-50
2022/04/19 12:36:50;;;;;;;2.70;1.27;;;23.80;99.90;;;;;;5026241;28;20863;-49
2022/04/19 12:39:24;;;;;;;1.13;0.93;;;23.60;99.90;;;;;;5028669;28;20450;-49
2022/04/19 12:41:50;;;;;;;4.10;1.20;;;23.50;99.90;;;;;;5033216;28;20436;-51
2022/04/19 12:44:19;;;;;;;1.60;0.90;;;23.60;99.90;;;;;;5032620;28;20483;-49
2022/04/19 12:46:49;;;;;;;2.33;1.10;;;23.30;99.90;;;;;;5034253;28;20183;-49
2022/04/19 12:49:21;;;;;;;1.20;1.00;;;23.10;99.90;;;;;;5033480;28;20472;-49
2022/04/19 12:52:05;;;;;;;1.67;1.00;;;23.20;99.90;;;;;;5034055;28;20406;-50
2022/04/19 12:54:35;;;;;;;1.00;0.90;;;23.30;99.90;;;;;;5042782;28;21351;-49
2022/04/19 12:57:03;;;;;;;1.23;1.00;;;23.30;99.90;;;;;;5030206;28;20477;-51
2022/04/19 12:59:34;;;;;;;5.73;1.10;;;23.30;99.90;;;;;;5038209;28;20518;-50
2022/04/19 13:02:01;;;;;;;1.47;1.00;;;23.20;99.90;;;;;;5029989;28;20876;-50
2022/04/19 13:04:27;;;;;;;0.80;0.80;;;22.90;99.90;;;;;;5032043;28;20469;-50
2022/04/19 13:12:24;;;;;;;3.43;1.00;;;23.50;99.90;;;;;;5024812;28;20433;-50
2022/04/19 13:14:56;;;;;;;2.07;0.90;;;23.40;99.90;;;;;;5032939;28;20433;-49
2022/04/19 13:17:23;;;;;;;1.00;0.90;;;23.10;99.90;;;;;;5032658;28;20780;-50
2022/04/19 13:19:49;;;;;;;2.10;0.90;;;23.40;99.90;;;;;;5032232;28;20779;-49
2022/04/19 13:22:15;;;;;;;2.10;1.57;;;23.70;99.90;;;;;;5031987;28;20433;-49
2022/04/19 13:24:42;;;;;;;2.03;1.10;;;23.40;99.90;;;;;;5031968;28;20265;-50
2022/04/19 13:27:12;;;;;;;1.33;0.90;;;23.20;99.90;;;;;;5032161;28;20449;-50
2022/04/19 13:29:44;;;;;;;1.90;0.83;;;23.00;99.90;;;;;;5031749;28;20524;-48